createdAt,value
2022-12-26T00:01:27.409Z,82.60
2022-12-26T00:03:56.758Z,82.60
2022-12-26T00:06:28.741Z,82.60
2022-12-26T00:08:57.668Z,82.50
2022-12-26T00:11:26.931Z,82.60
2022-12-26T00:13:56.999Z,82.50
2022-12-26T00:16:26.299Z,82.50
2022-12-26T00:18:55.006Z,82.50
2022-12-26T00:21:23.844Z,82.50
2022-12-26T00:23:53.517Z,82.50
2022-12-26T00:26:23.915Z,82.40
2022-12-26T00:28:52.622Z,82.40
2022-12-26T00:31:23.711Z,82.40
2022-12-26T00:33:52.196Z,82.30
2022-12-26T00:36:22.826Z,82.20
2022-12-26T00:38:53.206Z,82.20
2022-12-26T00:41:22.295Z,82.20
2022-12-26T00:43:51.240Z,82.20
2022-12-26T00:46:20.566Z,82.10
2022-12-26T00:48:49.621Z,82.20
2022-12-26T00:51:18.055Z,82.20
2022-12-26T00:53:46.407Z,82.00
2022-12-26T00:56:16.041Z,82.10
2022-12-26T00:58:44.605Z,82.00
2022-12-26T01:01:16.263Z,82.00
2022-12-26T01:03:45.771Z,82.00
2022-12-26T01:06:14.387Z,82.00
2022-12-26T01:08:42.687Z,82.00
2022-12-26T01:11:13.556Z,81.90
2022-12-26T01:13:43.813Z,82.00
2022-12-26T01:16:12.034Z,81.90
2022-12-26T01:18:40.227Z,81.90
2022-12-26T01:21:11.619Z,81.90
2022-12-26T01:23:39.827Z,81.80
2022-12-26T01:26:17.322Z,81.90
2022-12-26T01:28:49.667Z,81.90
2022-12-26T01:31:18.068Z,82.60
2022-12-26T01:33:46.446Z,81.90
2022-12-26T01:36:14.922Z,81.80
2022-12-26T01:38:43.138Z,81.80
2022-12-26T01:41:19.665Z,81.70
2022-12-26T01:43:58.624Z,81.70
2022-12-26T01:46:32.102Z,81.60
2022-12-26T01:49:03.078Z,81.70
2022-12-26T01:51:36.715Z,81.70
2022-12-26T01:54:40.002Z,81.60
2022-12-26T01:56:55.641Z,81.60
2022-12-26T01:59:28.118Z,81.50
2022-12-26T02:01:57.424Z,81.30
2022-12-26T02:04:46.393Z,81.30
2022-12-26T02:07:14.958Z,81.30
2022-12-26T02:09:43.313Z,81.30
2022-12-26T02:12:34.722Z,81.40
2022-12-26T02:15:09.781Z,81.20
2022-12-26T02:17:39.042Z,81.30
2022-12-26T02:20:18.750Z,81.30
2022-12-26T02:23:32.223Z,81.10
2022-12-26T02:26:31.504Z,80.90
2022-12-26T02:29:33.849Z,81.00
2022-12-26T02:32:12.978Z,80.80
2022-12-26T02:34:50.387Z,80.90
2022-12-26T02:37:31.623Z,80.90
2022-12-26T02:40:15.045Z,80.70
2022-12-26T02:42:52.484Z,80.70
2022-12-26T02:45:46.584Z,80.80
2022-12-26T02:48:23.922Z,80.70
2022-12-26T02:51:22.911Z,80.70
2022-12-26T02:54:18.601Z,80.70
2022-12-26T02:57:10.769Z,80.70
2022-12-26T03:00:06.140Z,80.60
2022-12-26T03:02:58.964Z,80.50
2022-12-26T03:05:49.415Z,80.60
2022-12-26T03:08:43.490Z,80.60
2022-12-26T03:11:30.807Z,80.60
2022-12-26T03:14:08.469Z,80.70
2022-12-26T03:17:02.636Z,80.60
2022-12-26T03:19:34.162Z,80.60
2022-12-26T03:22:25.849Z,80.60
2022-12-26T03:25:09.009Z,80.50
2022-12-26T03:27:37.207Z,80.60
2022-12-26T03:30:24.024Z,80.60
2022-12-26T03:32:53.683Z,80.50
2022-12-26T03:35:21.312Z,80.60
2022-12-26T03:37:56.719Z,80.60
2022-12-26T03:41:11.926Z,80.50
2022-12-26T03:44:10.827Z,80.30
2022-12-26T03:47:09.100Z,80.20
2022-12-26T03:50:00.555Z,80.20
2022-12-26T03:52:57.312Z,80.30
2022-12-26T03:55:49.732Z,80.20
2022-12-26T03:58:43.157Z,80.20
2022-12-26T04:01:34.398Z,80.30
2022-12-26T04:04:23.329Z,80.30
2022-12-26T04:07:13.110Z,80.40
2022-12-26T04:10:04.471Z,80.40
2022-12-26T04:12:54.671Z,80.40
2022-12-26T04:15:45.046Z,80.60
2022-12-26T04:18:36.367Z,80.60
2022-12-26T04:21:34.412Z,80.70
2022-12-26T04:24:27.571Z,80.70
2022-12-26T04:27:17.227Z,80.70
2022-12-26T04:30:04.820Z,80.80
2022-12-26T04:32:56.321Z,80.80
2022-12-26T04:35:53.031Z,80.80
2022-12-26T04:38:43.598Z,81.50
2022-12-26T04:41:30.604Z,81.10
2022-12-26T04:44:10.163Z,81.10
2022-12-26T04:46:42.399Z,81.20
2022-12-26T04:49:29.886Z,81.20
2022-12-26T04:51:59.963Z,81.20
2022-12-26T04:54:28.549Z,81.10
2022-12-26T04:56:57.034Z,81.20
2022-12-26T04:59:26.115Z,81.00
2022-12-26T05:02:13.224Z,80.90
2022-12-26T05:04:58.690Z,80.80
2022-12-26T05:07:47.456Z,80.70
2022-12-26T05:10:19.626Z,80.50
2022-12-26T05:12:47.839Z,80.40
2022-12-26T05:15:16.457Z,80.40
2022-12-26T05:18:03.664Z,80.40
2022-12-26T05:20:57.517Z,80.40
2022-12-26T05:23:44.268Z,80.40
2022-12-26T05:26:34.395Z,80.50
2022-12-26T05:29:03.885Z,80.20
2022-12-26T05:31:36.009Z,80.10
2022-12-26T05:34:05.845Z,80.20
2022-12-26T05:36:38.498Z,80.00
2022-12-26T05:39:07.423Z,80.00
2022-12-26T05:41:36.009Z,80.10
2022-12-26T05:44:04.466Z,80.10
2022-12-26T05:46:32.845Z,80.00
2022-12-26T05:49:01.404Z,80.00
2022-12-26T05:51:30.947Z,79.90
2022-12-26T05:53:59.277Z,79.80
2022-12-26T05:56:27.543Z,79.90
2022-12-26T05:58:56.684Z,79.90
2022-12-26T06:01:25.967Z,79.80
2022-12-26T06:03:55.870Z,79.80
2022-12-26T06:06:25.200Z,79.80
2022-12-26T06:08:56.661Z,79.90
2022-12-26T06:11:26.719Z,79.80
2022-12-26T06:13:55.316Z,79.90
2022-12-26T06:16:23.866Z,79.90
2022-12-26T06:18:52.181Z,79.90
2022-12-26T06:21:21.403Z,79.90
2022-12-26T06:23:50.405Z,79.80
2022-12-26T06:26:20.174Z,79.80
2022-12-26T06:28:48.394Z,79.70
2022-12-26T06:31:20.751Z,79.70
2022-12-26T06:33:50.607Z,79.80
2022-12-26T06:36:21.939Z,79.80
2022-12-26T06:38:50.256Z,79.80
2022-12-26T06:41:21.333Z,79.90
2022-12-26T06:43:49.886Z,79.90
2022-12-26T06:46:20.474Z,80.00
2022-12-26T06:48:49.153Z,79.90
2022-12-26T06:51:19.255Z,80.00
2022-12-26T06:53:47.703Z,80.00
2022-12-26T06:56:17.658Z,80.00
2022-12-26T06:58:47.489Z,79.90
2022-12-26T07:01:17.573Z,80.00
2022-12-26T07:03:51.203Z,80.00
2022-12-26T07:06:25.036Z,80.00
2022-12-26T07:08:54.273Z,80.00
2022-12-26T07:11:24.646Z,80.00
2022-12-26T07:13:55.261Z,80.10
2022-12-26T07:16:24.173Z,80.20
2022-12-26T07:18:54.113Z,80.20
2022-12-26T07:21:23.316Z,80.20
2022-12-26T07:23:52.245Z,80.30
2022-12-26T07:26:20.709Z,80.30
2022-12-26T07:28:49.082Z,80.30
2022-12-26T07:31:20.494Z,80.30
2022-12-26T07:33:50.708Z,80.30
2022-12-26T07:36:19.296Z,80.40
2022-12-26T07:38:47.837Z,80.40
2022-12-26T07:41:33.429Z,80.50
2022-12-26T07:44:01.795Z,80.50
2022-12-26T07:46:31.787Z,80.50
2022-12-26T07:49:00.423Z,80.60
2022-12-26T07:51:28.861Z,80.60
2022-12-26T07:53:57.234Z,80.70
2022-12-26T07:56:25.460Z,80.70
2022-12-26T07:58:54.229Z,80.80
2022-12-26T08:01:22.521Z,80.90
2022-12-26T08:03:52.821Z,81.00
2022-12-26T08:06:21.671Z,81.00
2022-12-26T08:08:51.394Z,81.10
2022-12-26T08:11:21.705Z,81.20
2022-12-26T08:13:49.945Z,81.30
2022-12-26T08:16:18.405Z,81.20
2022-12-26T08:18:46.628Z,81.30
2022-12-26T08:21:16.480Z,81.30
2022-12-26T08:23:45.245Z,81.60
2022-12-26T08:26:20.673Z,81.40
2022-12-26T08:28:48.981Z,81.30
2022-12-26T08:31:17.682Z,81.20
2022-12-26T08:33:46.085Z,81.20
2022-12-26T08:36:19.189Z,81.10
2022-12-26T08:38:48.131Z,81.10
2022-12-26T08:41:17.545Z,81.00
2022-12-26T08:44:30.868Z,80.90
2022-12-26T08:46:37.138Z,80.80
2022-12-26T08:49:05.324Z,80.70
2022-12-26T08:51:34.878Z,80.60
2022-12-26T08:54:03.140Z,80.50
2022-12-26T08:56:31.390Z,80.50
2022-12-26T08:58:59.657Z,80.30
2022-12-26T09:01:29.743Z,80.20
2022-12-26T09:04:02.453Z,80.10
2022-12-26T09:06:34.577Z,80.00
2022-12-26T09:09:03.343Z,80.00
2022-12-26T09:11:32.287Z,79.90
2022-12-26T09:14:02.297Z,79.90
2022-12-26T09:16:37.501Z,79.70
2022-12-26T09:19:07.970Z,79.50
2022-12-26T09:21:37.569Z,79.50
2022-12-26T09:24:08.270Z,79.40
2022-12-26T09:26:36.474Z,79.30
2022-12-26T09:29:05.034Z,79.40
2022-12-26T09:31:35.882Z,79.40
2022-12-26T09:34:05.199Z,79.30
2022-12-26T09:36:35.365Z,79.30
2022-12-26T09:39:05.670Z,79.30
2022-12-26T09:41:55.257Z,79.30
2022-12-26T09:44:30.169Z,79.10
2022-12-26T09:47:08.985Z,79.20
2022-12-26T09:49:43.456Z,79.10
2022-12-26T09:52:16.334Z,79.20
2022-12-26T09:54:52.386Z,79.20
2022-12-26T09:57:32.068Z,79.10
2022-12-26T10:00:04.439Z,79.30
2022-12-26T10:02:32.987Z,80.10
2022-12-26T10:05:01.438Z,79.50
2022-12-26T10:07:34.613Z,79.50
2022-12-26T10:10:11.001Z,79.50
2022-12-26T10:12:54.610Z,79.30
2022-12-26T10:15:31.536Z,79.10
2022-12-26T10:18:11.318Z,79.50
2022-12-26T10:20:55.376Z,79.10
2022-12-26T10:23:29.968Z,79.10
2022-12-26T10:26:06.800Z,79.50
2022-12-26T10:28:40.364Z,79.20
2022-12-26T10:31:15.790Z,79.30
2022-12-26T10:33:48.381Z,79.30
2022-12-26T10:36:24.845Z,79.20
2022-12-26T10:38:55.090Z,79.20
2022-12-26T10:41:28.796Z,79.10
2022-12-26T10:43:57.065Z,79.00
2022-12-26T10:46:55.336Z,79.10
2022-12-26T10:49:26.931Z,78.70
2022-12-26T10:51:58.542Z,78.90
2022-12-26T10:54:28.419Z,78.80
2022-12-26T10:57:00.122Z,78.90
2022-12-26T10:59:38.449Z,78.70
2022-12-26T11:02:16.672Z,78.50
2022-12-26T11:07:56.001Z,78.40
2022-12-26T11:10:27.387Z,78.40
2022-12-26T11:13:04.229Z,78.30
2022-12-26T11:15:35.607Z,78.00
2022-12-26T11:18:19.325Z,78.10
2022-12-26T11:20:48.743Z,77.90
2022-12-26T11:23:27.530Z,78.10
2022-12-26T11:25:57.551Z,77.80
2022-12-26T11:28:31.316Z,77.90
2022-12-26T11:31:00.841Z,77.60
2022-12-26T11:33:32.378Z,77.70
2022-12-26T11:36:10.592Z,77.70
2022-12-26T11:38:54.223Z,77.50
2022-12-26T11:41:39.766Z,77.50
2022-12-26T11:44:20.152Z,77.40
2022-12-26T11:46:53.685Z,77.40
2022-12-26T11:49:29.417Z,77.60
2022-12-26T11:52:01.933Z,77.60
2022-12-26T11:54:34.303Z,77.70
2022-12-26T11:57:13.080Z,77.60
2022-12-26T11:59:42.764Z,77.40
2022-12-26T12:02:26.977Z,77.20
2022-12-26T12:04:59.725Z,76.70
2022-12-26T12:08:00.549Z,77.00
2022-12-26T12:10:55.446Z,76.60
2022-12-26T12:13:37.790Z,76.40
2022-12-26T12:16:32.409Z,76.50
2022-12-26T12:19:13.156Z,76.30
2022-12-26T12:21:46.692Z,76.40
2022-12-26T12:24:40.453Z,76.30
2022-12-26T12:27:12.943Z,75.80
2022-12-26T12:29:55.218Z,76.90
2022-12-26T12:32:34.313Z,75.90
2022-12-26T12:35:25.442Z,75.60
2022-12-26T12:38:11.824Z,75.40
2022-12-26T12:40:50.335Z,75.50
2022-12-26T12:43:26.095Z,75.50
2022-12-26T12:46:00.148Z,75.70
2022-12-26T12:48:44.708Z,75.40
2022-12-26T12:51:24.395Z,75.00
2022-12-26T12:54:05.801Z,75.20
2022-12-26T12:56:42.936Z,75.00
2022-12-26T12:59:31.233Z,75.00
2022-12-26T13:02:09.059Z,74.80
2022-12-26T13:04:43.455Z,74.50
2022-12-26T13:07:19.095Z,74.20
2022-12-26T13:09:52.222Z,74.40
2022-12-26T13:12:24.019Z,74.40
2022-12-26T13:14:57.141Z,74.30
2022-12-26T13:17:32.712Z,74.30
2022-12-26T13:20:06.074Z,74.00
2022-12-26T13:22:54.027Z,73.70
2022-12-26T13:25:28.174Z,73.70
2022-12-26T13:28:09.423Z,73.60
2022-12-26T13:30:38.694Z,73.90
2022-12-26T13:33:07.565Z,74.10
2022-12-26T13:35:56.357Z,74.10
2022-12-26T13:38:54.425Z,74.00
2022-12-26T13:41:43.383Z,74.40
2022-12-26T13:44:27.176Z,74.50
2022-12-26T13:46:58.335Z,74.40
2022-12-26T13:49:36.280Z,74.70
2022-12-26T13:52:34.114Z,74.70
2022-12-26T13:55:32.458Z,74.80
2022-12-26T13:58:31.381Z,74.80
2022-12-26T14:01:06.815Z,75.00
2022-12-26T14:03:56.203Z,75.10
2022-12-26T14:06:55.745Z,74.90
2022-12-26T14:09:41.272Z,74.90
2022-12-26T14:12:36.736Z,74.90
2022-12-26T14:15:20.807Z,74.90
2022-12-26T14:17:59.146Z,74.80
2022-12-26T14:20:40.101Z,75.10
2022-12-26T14:23:24.412Z,75.00
2022-12-26T14:26:03.403Z,75.00
2022-12-26T14:28:44.042Z,75.10
2022-12-26T14:31:22.116Z,75.30
2022-12-26T14:33:56.544Z,73.90
2022-12-26T14:36:34.501Z,73.30
2022-12-26T14:39:18.381Z,73.10
2022-12-26T14:42:36.906Z,73.00
2022-12-26T14:45:13.053Z,73.30
2022-12-26T14:47:44.727Z,73.90
2022-12-26T14:50:43.270Z,74.10
2022-12-26T14:53:33.827Z,74.40
2022-12-26T14:56:03.940Z,74.60
2022-12-26T14:58:39.982Z,74.90
2022-12-26T15:01:48.631Z,74.80
2022-12-26T15:04:39.229Z,75.20
2022-12-26T15:07:32.285Z,75.50
2022-12-26T15:10:46.138Z,75.50
2022-12-26T15:13:49.649Z,75.50
2022-12-26T15:16:52.088Z,75.80
2022-12-26T15:20:09.682Z,75.90
2022-12-26T15:23:14.314Z,75.80
2022-12-26T15:26:30.764Z,75.50
2022-12-26T15:29:31.339Z,75.70
2022-12-26T15:32:09.718Z,75.80
2022-12-26T15:34:53.597Z,75.70
2022-12-26T15:37:40.056Z,75.90
2022-12-26T15:40:15.935Z,76.10
2022-12-26T15:42:55.319Z,76.20
2022-12-26T15:45:38.664Z,76.30
2022-12-26T15:48:28.436Z,76.40
2022-12-26T15:51:02.762Z,76.40
2022-12-26T15:53:44.758Z,76.60
2022-12-26T15:56:42.457Z,76.80
2022-12-26T15:59:41.972Z,76.70
2022-12-26T16:02:15.359Z,76.80
2022-12-26T16:04:50.583Z,76.90
2022-12-26T16:07:25.351Z,77.00
2022-12-26T16:09:55.563Z,77.10
2022-12-26T16:12:27.436Z,77.10
2022-12-26T16:15:05.870Z,77.20
2022-12-26T16:17:34.176Z,77.30
2022-12-26T16:20:39.596Z,77.20
2022-12-26T16:23:07.678Z,77.50
2022-12-26T16:25:38.104Z,77.50
2022-12-26T16:28:09.848Z,77.40
2022-12-26T16:30:39.283Z,77.00
2022-12-26T16:33:08.082Z,77.00
2022-12-26T16:35:41.688Z,76.90
2022-12-26T16:38:21.126Z,76.80
2022-12-26T16:40:51.329Z,76.90
2022-12-26T16:43:29.193Z,77.00
2022-12-26T16:46:00.572Z,77.20
2022-12-26T16:48:31.301Z,77.10
2022-12-26T16:51:02.574Z,77.30
2022-12-26T16:53:44.132Z,77.40
2022-12-26T16:56:26.580Z,77.50
2022-12-26T16:59:04.045Z,77.50
2022-12-26T17:01:33.701Z,78.20
2022-12-26T17:04:05.589Z,77.50
2022-12-26T17:06:38.149Z,77.60
2022-12-26T17:09:10.614Z,77.70
2022-12-26T17:11:46.395Z,77.60
2022-12-26T17:14:20.941Z,77.60
2022-12-26T17:16:57.139Z,77.70
2022-12-26T17:19:29.803Z,77.80
2022-12-26T17:22:28.875Z,77.90
2022-12-26T17:25:20.467Z,78.10
2022-12-26T17:28:09.574Z,78.10
2022-12-26T17:30:39.456Z,78.10
2022-12-26T17:33:15.497Z,78.30
2022-12-26T17:36:38.239Z,78.30
2022-12-26T17:38:36.239Z,78.50
2022-12-26T17:41:06.958Z,78.60
2022-12-26T17:43:37.619Z,78.70
2022-12-26T17:46:07.472Z,78.70
2022-12-26T17:48:36.278Z,78.80
2022-12-26T17:51:07.269Z,78.70
2022-12-26T17:53:39.524Z,78.80
2022-12-26T17:56:12.239Z,78.80
2022-12-26T17:58:40.579Z,78.80
2022-12-26T18:01:09.151Z,78.90
2022-12-26T18:03:37.549Z,78.90
2022-12-26T18:06:06.285Z,79.00
2022-12-26T18:08:38.285Z,79.10
2022-12-26T18:11:09.022Z,79.30
2022-12-26T18:13:37.283Z,79.30
2022-12-26T18:16:06.846Z,79.30
2022-12-26T18:18:37.451Z,79.30
2022-12-26T18:21:08.049Z,79.30
2022-12-26T18:23:38.109Z,79.30
2022-12-26T18:26:09.319Z,79.30
2022-12-26T18:28:37.543Z,79.20
2022-12-26T18:31:06.046Z,79.20
2022-12-26T18:33:34.348Z,79.10
2022-12-26T18:36:07.389Z,79.00
2022-12-26T18:38:37.830Z,79.00
2022-12-26T18:41:06.155Z,79.00
2022-12-26T18:43:34.438Z,78.90
2022-12-26T18:46:03.246Z,78.90
2022-12-26T18:48:31.480Z,78.80
2022-12-26T18:50:59.874Z,78.80
2022-12-26T18:53:28.133Z,78.70
2022-12-26T18:55:57.758Z,78.60
2022-12-26T18:58:26.030Z,78.60
2022-12-26T19:00:54.850Z,78.40
2022-12-26T19:03:23.103Z,78.30
2022-12-26T19:05:51.294Z,78.40
2022-12-26T19:08:22.024Z,78.50
2022-12-26T19:10:50.248Z,78.30
2022-12-26T19:13:19.965Z,78.30
2022-12-26T19:15:49.378Z,78.10
2022-12-26T19:18:17.605Z,77.90
2022-12-26T19:20:48.626Z,77.70
2022-12-26T19:23:17.201Z,77.40
2022-12-26T19:25:45.469Z,77.00
2022-12-26T19:28:13.704Z,77.00
2022-12-26T19:30:43.311Z,76.90
2022-12-26T19:33:11.581Z,76.50
2022-12-26T19:35:39.856Z,76.30
2022-12-26T19:38:08.145Z,76.00
2022-12-26T19:40:36.355Z,75.70
2022-12-26T19:43:04.625Z,75.50
2022-12-26T19:45:32.926Z,75.40
2022-12-26T19:48:02.764Z,75.10
2022-12-26T19:50:30.959Z,74.80
2022-12-26T19:52:59.177Z,74.90
2022-12-26T19:55:27.419Z,74.90
2022-12-26T19:57:55.634Z,74.80
2022-12-26T20:00:23.943Z,74.80
2022-12-26T20:02:52.172Z,74.80
2022-12-26T20:05:21.831Z,74.70
2022-12-26T20:07:50.103Z,74.60
2022-12-26T20:10:18.390Z,74.70
2022-12-26T20:12:46.605Z,74.90
2022-12-26T20:15:14.844Z,74.90
2022-12-26T20:17:43.224Z,74.70
2022-12-26T20:20:11.766Z,74.60
2022-12-26T20:22:41.359Z,74.60
2022-12-26T20:25:10.424Z,74.50
2022-12-26T20:27:40.670Z,74.30
2022-12-26T20:30:10.630Z,74.10
2022-12-26T20:32:39.237Z,73.90
2022-12-26T20:35:08.086Z,73.80
2022-12-26T20:37:36.283Z,73.70
2022-12-26T20:40:07.081Z,73.60
2022-12-26T20:42:35.299Z,73.50
2022-12-26T20:45:03.563Z,73.50
2022-12-26T20:47:31.988Z,73.50
2022-12-26T20:50:00.215Z,73.30
2022-12-26T20:52:28.472Z,73.10
2022-12-26T20:54:56.715Z,72.50
2022-12-26T20:57:26.354Z,71.90
2022-12-26T20:59:55.132Z,71.40
2022-12-26T21:02:23.509Z,71.30
2022-12-26T21:04:52.139Z,71.40
2022-12-26T21:07:20.365Z,71.40
2022-12-26T21:09:48.640Z,71.50
2022-12-26T21:12:16.911Z,71.70
2022-12-26T21:14:46.504Z,71.80
2022-12-26T21:17:18.606Z,71.70
2022-12-26T21:19:47.303Z,71.90
2022-12-26T21:22:15.789Z,71.90
2022-12-26T21:24:44.309Z,72.00
2022-12-26T21:27:12.514Z,72.10
2022-12-26T21:29:40.864Z,71.80
2022-12-26T21:32:10.544Z,71.70
2022-12-26T21:34:39.027Z,71.60
2022-12-26T21:37:24.554Z,71.50
2022-12-26T21:39:52.808Z,71.60
2022-12-26T21:42:21.034Z,71.60
2022-12-26T21:44:50.539Z,71.50
2022-12-26T21:47:20.221Z,71.40
2022-12-26T21:49:48.431Z,70.90
2022-12-26T21:52:16.624Z,71.20
2022-12-26T21:55:02.427Z,71.20
2022-12-26T21:57:31.635Z,71.40
2022-12-26T22:00:00.153Z,71.70
2022-12-26T22:02:49.317Z,72.40
2022-12-26T22:05:18.563Z,71.60
2022-12-26T22:07:47.069Z,71.90
2022-12-26T22:10:29.518Z,71.80
2022-12-26T22:12:57.808Z,71.90
2022-12-26T22:15:44.059Z,72.00
2022-12-26T22:18:13.758Z,72.00
2022-12-26T22:20:44.604Z,72.10
2022-12-26T22:23:13.471Z,72.30
2022-12-26T22:25:41.716Z,72.40
2022-12-26T22:28:09.919Z,72.50
2022-12-26T22:30:38.090Z,72.50
2022-12-26T22:33:06.307Z,72.50
2022-12-26T22:35:35.971Z,72.50
2022-12-26T22:38:04.192Z,72.60
2022-12-26T22:40:32.513Z,72.60
2022-12-26T22:43:00.801Z,72.70
2022-12-26T22:45:29.104Z,72.70
2022-12-26T22:47:57.561Z,72.80
2022-12-26T22:50:25.742Z,72.90
2022-12-26T22:52:55.306Z,72.90
2022-12-26T22:55:23.514Z,73.00
2022-12-26T22:57:53.350Z,73.10
2022-12-26T23:00:22.527Z,73.20
2022-12-26T23:02:50.853Z,73.30
2022-12-26T23:05:19.619Z,73.30
2022-12-26T23:07:48.292Z,73.30
2022-12-26T23:10:22.124Z,73.40
2022-12-26T23:12:51.785Z,73.40
2022-12-26T23:15:22.270Z,73.50
2022-12-26T23:18:13.851Z,73.60
2022-12-26T23:21:00.601Z,73.60
2022-12-26T23:23:33.763Z,73.70
2022-12-26T23:26:03.178Z,73.70
2022-12-26T23:28:48.820Z,73.80
2022-12-26T23:31:17.085Z,73.80
2022-12-26T23:33:45.307Z,73.80
2022-12-26T23:36:13.608Z,73.80
2022-12-26T23:38:41.989Z,73.80
2022-12-26T23:41:11.604Z,73.80
2022-12-26T23:43:39.829Z,73.80
2022-12-26T23:46:10.893Z,73.80
2022-12-26T23:48:39.249Z,73.80
2022-12-26T23:51:08.840Z,73.90
2022-12-26T23:53:37.254Z,73.80
2022-12-26T23:56:09.318Z,73.90
2022-12-26T23:58:39.977Z,73.80
